Time;durP1;ratioP1;P1;durP2;ratioP2;P2;SDS_P1;SDS_P2;PMS_P1;PMS_P2;Temp;Humidity;BMP_temperature;BMP_pressure;BME280_temperature;BME280_humidity;BME280_pressure;Samples;Min_cycle;Max_cycle;Signal;HPM_P1;HPM_P2
2023/03/20 00:00:45;;;;;;;;;20.67;16.33;;;;;10.60;100.00;101440.16;5090251;28;45392;-81
2023/03/20 00:03:13;;;;;;;;;14.67;12.33;;;;;10.59;100.00;101438.31;5089932;28;45510;-82
2023/03/20 00:05:39;;;;;;;;;13.67;13.67;;;;;10.48;100.00;101429.16;5089242;28;47408;-82
2023/03/20 00:08:05;;;;;;;;;17.00;13.33;;;;;10.54;100.00;101437.31;5088623;28;45534;-82
2023/03/20 00:10:39;;;;;;;;;13.67;13.00;;;;;10.62;100.00;101429.50;5087542;28;45566;-81
2023/03/20 00:13:06;;;;;;;;;15.33;14.33;;;;;10.60;100.00;101445.47;5087402;28;45454;-81
2023/03/20 00:15:37;;;;;;;;;15.33;14.00;;;;;10.67;100.00;101445.63;5088956;27;45496;-82
2023/03/20 00:18:10;;;;;;;;;13.67;13.67;;;;;10.46;100.00;101420.25;5088932;27;45491;-81
2023/03/20 00:20:36;;;;;;;;;14.33;13.00;;;;;10.52;100.00;101449.69;5087804;28;45486;-81
2023/03/20 00:23:03;;;;;;;;;17.00;14.00;;;;;10.55;100.00;101451.53;5089567;28;45325;-81
2023/03/20 00:28:50;;;;;;;;;16.33;12.67;;;;;10.53;100.00;101453.25;5090748;28;45649;-81
2023/03/20 00:31:31;;;;;;;;;14.00;12.00;;;;;10.67;100.00;101448.28;5087806;28;45465;-81
2023/03/20 00:34:00;;;;;;;;;13.33;13.33;;;;;10.59;100.00;101440.97;5089854;28;45618;-80
2023/03/20 00:36:26;;;;;;;;;14.67;14.33;;;;;10.53;100.00;101448.81;5089349;28;48296;-81
2023/03/20 00:38:52;;;;;;;;;16.00;14.00;;;;;10.53;100.00;101451.47;5090244;27;44811;-82
2023/03/20 00:41:33;;;;;;;;;16.33;16.33;;;;;10.60;100.00;101434.81;5072274;28;45592;-82
2023/03/20 00:44:03;;;;;;;;;16.00;14.00;;;;;10.56;100.00;101446.25;5068197;28;45378;-82
2023/03/20 00:46:38;;;;;;;;;14.00;14.00;;;;;10.61;100.00;101443.69;5069238;28;45575;-82
2023/03/20 00:49:03;;;;;;;;;15.67;15.33;;;;;10.40;100.00;101428.06;5069054;28;45580;-82
2023/03/20 00:51:29;;;;;;;;;15.33;15.33;;;;;10.45;100.00;101439.75;5068864;28;44890;-82
2023/03/20 00:53:54;;;;;;;;;17.00;17.00;;;;;10.43;100.00;101444.13;5070411;28;45446;-82
2023/03/20 00:56:31;;;;;;;;;15.67;15.67;;;;;10.52;100.00;101436.38;5069890;28;45424;-82
2023/03/20 00:58:59;;;;;;;;;18.33;16.33;;;;;10.36;100.00;101436.81;5068730;28;45439;-82
2023/03/20 01:01:24;;;;;;;;;17.00;17.00;;;;;10.30;100.00;101437.59;5069141;28;45348;-82
2023/03/20 01:03:50;;;;;;;;;16.67;14.00;;;;;10.31;100.00;101438.47;5069821;27;45420;-82
2023/03/20 01:06:17;;;;;;;;;19.00;17.67;;;;;10.29;100.00;101440.16;5068781;28;46564;-82
2023/03/20 01:08:43;;;;;;;;;18.67;18.00;;;;;10.26;100.00;101446.31;5068648;28;45858;-82
2023/03/20 01:11:12;;;;;;;;;18.00;18.00;;;;;10.34;100.00;101443.88;5070274;28;45572;-82
2023/03/20 01:13:40;;;;;;;;;14.67;14.67;;;;;10.33;100.00;101436.75;5068075;28;45577;-82
2023/03/20 01:16:06;;;;;;;;;17.67;17.67;;;;;10.21;100.00;101440.84;5069351;28;45970;-81
2023/03/20 01:18:36;;;;;;;;;17.67;14.00;;;;;10.34;100.00;101438.53;5070130;28;45416;-81
2023/03/20 01:21:05;;;;;;;;;14.00;14.00;;;;;10.27;100.00;101447.22;5069279;27;45449;-82
2023/03/20 01:23:30;;;;;;;;;17.00;15.00;;;;;10.17;100.00;101452.25;5068982;28;45636;-81
2023/03/20 01:25:56;;;;;;;;;16.00;14.00;;;;;10.17;100.00;101457.56;5069199;28;46478;-82
2023/03/20 01:28:32;;;;;;;;;15.00;15.00;;;;;10.27;100.00;101444.53;5067484;28;45661;-83
2023/03/20 01:30:59;;;;;;;;;17.00;16.67;;;;;10.24;100.00;101457.75;5069455;28;45487;-82
2023/03/20 01:33:26;;;;;;;;;16.33;16.33;;;;;10.13;100.00;101462.78;5068461;28;45560;-82
2023/03/20 01:35:52;;;;;;;;;14.00;14.00;;;;;10.08;100.00;101444.06;5068358;28;46904;-82
2023/03/20 01:38:21;;;;;;;;;12.67;12.67;;;;;10.21;100.00;101459.47;5074116;28;45475;-83
2023/03/20 01:41:05;;;;;;;;;14.00;13.33;;;;;10.28;100.00;101451.66;5086404;28;45746;-82
2023/03/20 01:43:32;;;;;;;;;11.67;11.67;;;;;10.20;100.00;101449.69;5087872;28;45421;-82
2023/03/20 01:46:00;;;;;;;;;15.33;14.00;;;;;10.27;100.00;101448.09;5087722;28;47011;-82
2023/03/20 01:48:51;;;;;;;;;16.00;13.67;;;;;10.22;100.00;101431.13;5086767;28;45453;-81
2023/03/20 01:51:34;;;;;;;;;13.67;12.67;;;;;10.32;100.00;101446.50;5090727;27;45338;-82
2023/03/20 01:54:11;;;;;;;;;14.67;14.33;;;;;10.27;100.00;101432.16;5089883;27;45376;-82
2023/03/20 01:57:07;;;;;;;;;12.00;12.00;;;;;10.23;100.00;101432.91;5087047;28;47677;-82
2023/03/20 01:59:42;;;;;;;;;14.00;14.00;;;;;10.25;100.00;101433.88;5082104;28;45462;-82
2023/03/20 02:02:12;;;;;;;;;12.33;12.00;;;;;10.21;100.00;101431.97;5088050;28;45448;-82
2023/03/20 02:04:42;;;;;;;;;13.67;12.00;;;;;10.19;100.00;101436.34;5088549;28;45411;-82
2023/03/20 02:07:12;;;;;;;;;10.33;10.00;;;;;10.15;100.00;101427.41;5089585;27;46601;-82
2023/03/20 02:09:37;;;;;;;;;6.67;6.67;;;;;10.09;100.00;101432.53;5088589;28;45510;-82
2023/03/20 02:12:04;;;;;;;;;13.67;8.67;;;;;10.15;100.00;101423.84;5087481;28;44730;-82
2023/03/20 02:14:32;;;;;;;;;11.33;11.33;;;;;10.10;100.00;101429.06;5088685;28;45437;-82
2023/03/20 02:16:58;;;;;;;;;8.33;8.33;;;;;9.97;100.00;101427.78;5088518;27;45581;-82
2023/03/20 02:19:45;;;;;;;;;14.00;11.67;;;;;10.05;100.00;101421.81;5067722;28;45558;-82
2023/03/20 02:22:33;;;;;;;;;11.00;8.67;;;;;9.92;100.00;101400.22;5068361;28;45490;-81
2023/03/20 02:25:45;;;;;;;;;8.67;8.00;;;;;10.07;100.00;101428.06;5070561;28;45361;-82
2023/03/20 02:28:30;;;;;;;;;12.00;11.00;;;;;9.88;100.00;101427.56;5068456;28;48023;-81
2023/03/20 02:31:17;;;;;;;;;11.33;11.33;;;;;9.97;100.00;101422.47;5066306;28;45757;-81
2023/03/20 02:33:57;;;;;;;;;10.00;8.00;;;;;9.95;100.00;101424.19;5067223;28;45376;-81
2023/03/20 02:36:50;;;;;;;;;12.67;11.00;;;;;10.02;100.00;101430.59;5074977;27;45655;-81
2023/03/20 02:39:33;;;;;;;;;12.33;12.00;;;;;10.06;100.00;101426.25;5091450;27;46883;-82
2023/03/20 02:42:32;;;;;;;;;17.33;12.67;;;;;10.07;100.00;101420.97;5110209;27;44771;-82
2023/03/20 02:45:14;;;;;;;;;18.67;16.67;;;;;10.14;100.00;101422.97;5060605;27;45389;-82
2023/03/20 02:47:39;;;;;;;;;19.67;15.67;;;;;10.01;100.00;101424.38;5108229;27;45290;-82
2023/03/20 02:50:32;;;;;;;;;20.00;18.00;;;;;10.14;100.00;101422.97;5109641;27;45401;-82
2023/03/20 02:53:27;;;;;;;;;14.33;14.33;;;;;10.23;100.00;101416.97;5090246;27;45489;-82
2023/03/20 02:56:12;;;;;;;;;17.67;16.00;;;;;10.15;100.00;101411.44;5091191;27;45495;-82
2023/03/20 02:58:51;;;;;;;;;15.33;14.33;;;;;10.17;100.00;101399.09;5109771;27;45287;-82
2023/03/20 03:01:25;;;;;;;;;19.33;17.00;;;;;10.17;100.00;101408.84;5108484;27;46807;-82
2023/03/20 03:03:50;;;;;;;;;13.00;13.00;;;;;10.04;100.00;101414.66;5090873;27;45673;-82
2023/03/20 03:06:41;;;;;;;;;17.67;17.67;;;;;10.15;100.00;101407.91;5090554;27;45496;-82
2023/03/20 03:09:22;;;;;;;;;14.67;14.67;;;;;10.12;100.00;101400.75;5109925;27;45530;-81
2023/03/20 03:12:05;;;;;;;;;17.00;17.00;;;;;10.11;100.00;101403.38;5109973;27;45674;-81
2023/03/20 03:14:43;;;;;;;;;16.00;15.00;;;;;9.98;100.00;101399.50;5089643;27;45492;-81
2023/03/20 03:17:11;;;;;;;;;20.33;18.67;;;;;9.88;100.00;101416.94;5089280;27;45430;-81
2023/03/20 03:19:41;;;;;;;;;12.33;12.33;;;;;9.85;100.00;101410.63;5090650;27;44908;-82
2023/03/20 03:22:07;;;;;;;;;11.33;11.00;;;;;9.76;100.00;101409.50;5108228;27;46133;-82
2023/03/20 03:24:35;;;;;;;;;15.33;13.00;;;;;9.77;100.00;101408.63;5107705;27;45321;-82
2023/03/20 03:27:06;;;;;;;;;16.00;16.00;;;;;9.70;100.00;101400.47;5088924;27;45427;-82
2023/03/20 03:29:38;;;;;;;;;17.67;15.33;;;;;9.71;100.00;101402.25;5088975;27;46026;-82
2023/03/20 03:32:06;;;;;;;;;17.00;15.00;;;;;9.67;100.00;101403.94;5109630;27;45389;-82
2023/03/20 03:34:36;;;;;;;;;17.33;17.00;;;;;9.69;100.00;101399.56;5093218;27;45409;-82
2023/03/20 03:37:11;;;;;;;;;13.00;13.00;;;;;9.75;100.00;101407.69;5109828;27;45487;-82
2023/03/20 03:39:50;;;;;;;;;12.00;9.67;;;;;9.75;100.00;101396.19;5111415;27;45445;-82
2023/03/20 03:42:29;;;;;;;;;8.00;8.00;;;;;9.68;100.00;101397.78;5111764;27;46118;-82
2023/03/20 03:45:16;;;;;;;;;9.67;9.67;;;;;9.86;100.00;101394.72;5094189;27;45574;-82
2023/03/20 03:47:55;;;;;;;;;11.33;8.67;;;;;9.81;100.00;101394.59;5092108;27;45504;-82
2023/03/20 03:50:36;;;;;;;;;6.00;6.00;;;;;9.69;100.00;101383.63;5110452;27;45470;-81
2023/03/20 03:53:10;;;;;;;;;9.00;9.00;;;;;9.66;100.00;101388.88;5112461;27;46309;-81
2023/03/20 03:55:41;;;;;;;;;9.33;7.67;;;;;9.63;100.00;101388.75;5094402;27;45419;-81
2023/03/20 03:58:30;;;;;;;;;12.33;11.00;;;;;9.59;100.00;101377.19;5111985;27;45448;-81
2023/03/20 04:01:00;;;;;;;;;7.00;7.00;;;;;9.58;100.00;101379.78;5095656;27;45551;-81
2023/03/20 04:03:34;;;;;;;;;7.00;6.00;;;;;9.63;100.00;101385.22;5111714;27;45752;-81
2023/03/20 04:06:03;;;;;;;;;6.67;5.33;;;;;9.64;100.00;101389.69;5112005;27;45314;-81
2023/03/20 04:08:34;;;;;;;;;8.33;8.33;;;;;9.72;100.00;101398.78;5096338;27;44808;-81
2023/03/20 04:11:00;;;;;;;;;8.33;7.33;;;;;9.61;100.00;101398.44;5077898;27;45685;-81
2023/03/20 04:13:25;;;;;;;;;6.33;6.33;;;;;9.62;100.00;101402.91;5093946;27;47018;-81
2023/03/20 04:15:51;;;;;;;;;8.33;7.00;;;;;9.66;100.00;101404.81;5110419;27;44682;-81
2023/03/20 04:18:18;;;;;;;;;8.00;8.00;;;;;9.74;100.00;101402.38;5092933;27;45295;-81
2023/03/20 04:20:45;;;;;;;;;13.33;11.00;;;;;9.79;100.00;101409.59;5091666;27;45488;-81
2023/03/20 04:23:11;;;;;;;;;11.33;7.67;;;;;9.68;100.00;101404.84;5091107;27;47098;-81
2023/03/20 04:28:58;;;;;;;;;11.67;11.67;;;;;9.76;100.00;101406.84;5112038;27;45467;-81
2023/03/20 04:31:24;;;;;;;;;11.67;10.33;;;;;9.78;100.00;101414.88;5083575;28;45451;-80
2023/03/20 04:33:50;;;;;;;;;7.67;7.67;;;;;9.73;100.00;101419.16;5072458;28;47526;-80
2023/03/20 04:36:15;;;;;;;;;7.00;6.67;;;;;9.75;100.00;101420.97;5088891;28;45390;-80
2023/03/20 04:38:44;;;;;;;;;4.00;4.00;;;;;9.87;100.00;101420.44;5070089;28;45489;-81
2023/03/20 04:41:09;;;;;;;;;3.33;3.33;;;;;9.80;100.00;101407.84;5069920;28;45327;-81
2023/03/20 04:43:35;;;;;;;;;5.33;5.33;;;;;9.89;100.00;101423.13;5087217;28;45328;-82
2023/03/20 04:46:00;;;;;;;;;5.33;5.33;;;;;9.89;100.00;101423.13;5072507;28;45779;-82
2023/03/20 04:48:26;;;;;;;;;4.67;3.67;;;;;9.85;100.00;101414.16;5088175;28;45421;-82
2023/03/20 04:50:52;;;;;;;;;5.33;5.33;;;;;9.86;100.00;101418.66;5071892;28;45439;-82
2023/03/20 04:53:17;;;;;;;;;7.00;7.00;;;;;9.81;100.00;101410.53;5088727;28;45425;-82
2023/03/20 04:55:44;;;;;;;;;6.33;6.33;;;;;9.91;100.00;101405.47;5090226;28;45931;-82
2023/03/20 04:58:11;;;;;;;;;5.33;4.33;;;;;9.86;100.00;101407.13;5071643;28;45441;-82
2023/03/20 05:00:37;;;;;;;;;6.00;6.00;;;;;9.86;100.00;101401.81;5089630;28;45522;-82
2023/03/20 05:03:02;;;;;;;;;6.00;4.00;;;;;9.88;100.00;101400.09;5088900;28;45444;-82
2023/03/20 05:05:28;;;;;;;;;6.00;6.00;;;;;9.96;100.00;101399.44;5089781;28;45323;-81
2023/03/20 05:07:55;;;;;;;;;4.00;4.00;;;;;10.08;100.00;101404.19;5090257;28;45367;-82
2023/03/20 05:10:20;;;;;;;;;3.67;3.67;;;;;10.11;100.00;101404.25;5071027;28;45553;-82
2023/03/20 05:12:46;;;;;;;;;3.00;3.00;;;;;10.18;100.00;101397.38;5088911;28;46598;-82
2023/03/20 05:15:12;;;;;;;;;4.00;4.00;;;;;10.28;100.00;101404.72;5089901;28;45338;-82
2023/03/20 05:17:37;;;;;;;;;6.33;3.00;;;;;10.30;100.00;101394.13;5090099;28;45453;-82
2023/03/20 05:20:04;;;;;;;;;5.00;5.00;;;;;10.49;100.00;101406.16;5088816;28;45400;-81
2023/03/20 05:22:29;;;;;;;;;6.67;3.67;;;;;10.47;100.00;101403.44;5068659;28;47513;-83
2023/03/20 05:24:54;;;;;;;;;2.67;2.33;;;;;10.59;100.00;101397.53;5085759;28;45483;-81
2023/03/20 05:27:20;;;;;;;;;6.00;3.00;;;;;10.65;100.00;101380.84;5085881;28;45550;-81
2023/03/20 05:29:45;;;;;;;;;3.33;3.33;;;;;10.73;100.00;101396.09;5067899;28;45456;-82
2023/03/20 05:32:11;;;;;;;;;3.00;3.00;;;;;10.78;100.00;101382.91;5067610;28;46565;-81
2023/03/20 05:34:40;;;;;;;;;3.00;3.00;;;;;10.95;100.00;101388.63;5067911;28;45926;-82
2023/03/20 05:37:05;;;;;;;;;3.00;3.00;;;;;10.80;100.00;101391.81;5084498;28;45396;-82
2023/03/20 05:39:31;;;;;;;;;6.67;4.00;;;;;10.80;100.00;101391.81;5086480;28;45401;-81
2023/03/20 05:41:56;;;;;;;;;3.00;3.00;;;;;10.63;100.00;101377.25;5067673;28;46048;-82
2023/03/20 05:44:23;;;;;;;;;8.67;3.00;;;;;10.64;100.00;101369.28;5068491;28;45420;-83
2023/03/20 05:46:49;;;;;;;;;6.67;4.67;;;;;10.75;100.00;101405.03;5091639;27;44807;-82
2023/03/20 05:49:14;;;;;;;;;3.67;3.67;;;;;10.78;100.00;101394.44;5089753;27;45455;-83
2023/03/20 05:51:40;;;;;;;;;4.00;4.00;;;;;10.82;100.00;101400.72;5089041;27;46704;-81
2023/03/20 05:54:05;;;;;;;;;4.00;4.00;;;;;10.84;100.00;101408.75;5087782;27;45753;-82
2023/03/20 05:56:31;;;;;;;;;6.00;6.00;;;;;10.80;100.00;101391.81;5107309;27;45486;-81
2023/03/20 05:58:56;;;;;;;;;6.67;5.33;;;;;10.83;100.00;101402.56;5090204;27;45482;-81
2023/03/20 06:01:22;;;;;;;;;8.00;6.00;;;;;10.80;100.00;101405.13;5108766;27;45527;-81
2023/03/20 06:03:48;;;;;;;;;4.00;4.00;;;;;10.77;100.00;101410.38;5107374;27;45444;-81
2023/03/20 06:06:15;;;;;;;;;3.33;3.33;;;;;10.80;100.00;101407.78;5107811;27;45363;-82
2023/03/20 06:08:40;;;;;;;;;6.33;4.67;;;;;10.81;100.00;101418.47;5090052;27;45394;-82
2023/03/20 06:11:06;;;;;;;;;4.00;4.00;;;;;10.85;100.00;101414.13;5088281;27;47953;-81
2023/03/20 06:13:34;;;;;;;;;5.33;4.00;;;;;10.89;100.00;101418.66;5089291;27;45354;-82
2023/03/20 06:16:00;;;;;;;;;3.00;3.00;;;;;10.87;100.00;101415.06;5108073;27;45373;-82
2023/03/20 06:18:26;;;;;;;;;4.00;4.00;;;;;11.01;100.00;101412.72;5090106;27;45536;-81
2023/03/20 06:20:53;;;;;;;;;3.33;3.33;;;;;11.09;100.00;101410.22;5106973;27;45407;-81
2023/03/20 06:23:19;;;;;;;;;6.00;6.00;;;;;11.08;99.47;101411.09;5106299;27;45400;-81
2023/03/20 06:25:45;;;;;;;;;6.33;6.00;;;;;11.01;100.00;101408.28;5087701;27;44860;-82
2023/03/20 06:28:10;;;;;;;;;5.33;5.33;;;;;11.12;100.00;101418.28;5106718;27;45637;-81
2023/03/20 06:34:13;;;;;;;;;4.00;3.00;;;;;11.18;99.47;101400.69;5107560;27;45552;-82
2023/03/20 06:36:38;;;;;;;;;7.00;4.00;;;;;11.29;99.87;101398.28;5085793;28;46075;-82
2023/03/20 06:39:04;;;;;;;;;6.00;6.00;;;;;11.14;99.93;101376.63;5085350;28;45459;-82
2023/03/20 06:41:30;;;;;;;;;4.00;2.33;;;;;11.28;98.30;101385.81;5085666;28;47298;-82
2023/03/20 06:47:17;;;;;;;;;5.33;3.33;;;;;11.33;95.88;101393.88;5089878;28;45374;-84
2023/03/20 06:49:43;;;;;;;;;4.00;4.00;;;;;11.39;97.44;101402.94;5093466;27;45402;-83
2023/03/20 06:52:46;;;;;;;;;6.67;3.33;;;;;11.55;97.79;101400.56;5089653;27;45690;-83
2023/03/20 06:55:13;;;;;;;;;3.00;3.00;;;;;11.29;97.46;101361.00;5005392;28;45398;-81
2023/03/20 06:57:47;;;;;;;;;3.33;2.67;;;;;11.65;96.31;101397.22;5005766;28;45519;-82
2023/03/20 07:00:14;;;;;;;;;3.00;3.00;;;;;11.47;94.07;101386.19;5004705;28;45419;-82
2023/03/20 07:02:40;;;;;;;;;4.00;4.00;;;;;11.45;94.59;101394.16;5005672;28;46461;-82
2023/03/20 07:05:06;;;;;;;;;4.00;4.00;;;;;11.34;96.58;101385.94;4990786;28;45512;-82
2023/03/20 07:07:35;;;;;;;;;6.00;3.00;;;;;11.41;96.73;101385.22;5011542;28;44880;-83
2023/03/20 07:10:03;;;;;;;;;5.33;5.33;;;;;11.67;96.02;101406.13;5008219;28;45586;-82
2023/03/20 07:12:28;;;;;;;;;4.33;3.33;;;;;11.73;95.91;101416.03;4991103;28;45619;-82
2023/03/20 07:14:55;;;;;;;;;4.00;3.00;;;;;11.71;94.40;101389.34;5008114;28;45556;-82
2023/03/20 07:17:23;;;;;;;;;3.33;3.33;;;;;11.92;94.74;101406.69;5008050;28;45445;-83
2023/03/20 07:20:17;;;;;;;;;3.00;3.00;;;;;12.15;94.75;101415.09;4993448;28;44851;-83
2023/03/20 07:23:00;;;;;;;;;4.67;3.33;;;;;12.13;95.32;101406.19;4989232;28;45519;-82
2023/03/20 07:25:34;;;;;;;;;3.00;3.00;;;;;12.40;92.23;101413.75;4988502;28;45452;-82
2023/03/20 07:28:03;;;;;;;;;5.33;5.33;;;;;12.36;94.92;101415.50;4989908;28;45453;-83
2023/03/20 07:30:33;;;;;;;;;4.33;3.67;;;;;12.52;94.00;101421.06;5027029;28;45550;-82
2023/03/20 07:32:59;;;;;;;;;3.33;3.00;;;;;12.39;93.94;101410.19;5068359;28;45554;-83
2023/03/20 07:35:24;;;;;;;;;4.33;4.33;;;;;12.49;93.55;101405.03;5073884;27;45469;-83
2023/03/20 07:37:56;;;;;;;;;4.00;4.00;;;;;12.70;93.71;101410.69;5088127;28;45407;-82
2023/03/20 07:40:21;;;;;;;;;6.67;3.33;;;;;12.73;93.15;101420.56;5074116;28;45418;-82
2023/03/20 07:42:46;;;;;;;;;8.00;4.00;;;;;12.83;92.96;101411.81;5092198;28;46260;-83
2023/03/20 07:45:12;;;;;;;;;8.33;5.00;;;;;12.90;93.91;101419.03;5074183;27;45894;-82
2023/03/20 07:47:41;;;;;;;;;7.33;7.00;;;;;13.09;93.81;101416.63;5093601;27;46029;-82
2023/03/20 07:50:07;;;;;;;;;4.00;4.00;;;;;13.01;90.99;101406.75;5096669;27;45456;-82
2023/03/20 07:52:36;;;;;;;;;4.00;4.00;;;;;13.18;91.96;101420.34;5114097;27;45382;-82
2023/03/20 07:55:01;;;;;;;;;5.67;5.67;;;;;13.14;92.95;101418.50;5094620;27;45535;-82
2023/03/20 08:00:55;;;;;;;;;5.33;4.00;;;;;13.28;91.77;101416.03;5118474;27;45364;-84
2023/03/20 08:03:20;;;;;;;;;3.67;3.33;;;;;13.32;90.63;101407.22;5114676;27;45555;-82
2023/03/20 08:05:46;;;;;;;;;4.67;4.00;;;;;13.39;92.27;101403.75;5113083;27;45401;-82
2023/03/20 08:08:13;;;;;;;;;3.33;3.00;;;;;13.51;92.16;101400.34;5096166;27;45286;-83
2023/03/20 08:10:38;;;;;;;;;7.33;7.00;;;;;13.45;91.79;101405.59;5093959;27;45379;-82
2023/03/20 08:17:03;;;;;;;;;5.33;3.33;;;;;13.86;89.92;101420.38;5113266;27;45537;-83
2023/03/20 08:19:29;;;;;;;;;5.33;5.33;;;;;13.69;90.53;101413.00;5095130;27;45532;-83
2023/03/20 08:22:00;;;;;;;;;8.33;7.00;;;;;13.79;89.25;101414.94;5113554;27;45498;-83
2023/03/20 08:24:26;;;;;;;;;4.33;4.00;;;;;13.67;89.48;101419.22;5110204;27;45395;-82
2023/03/20 08:26:54;;;;;;;;;5.00;5.00;;;;;13.90;89.88;101432.88;5097891;27;45343;-82
2023/03/20 08:29:29;;;;;;;;;3.00;3.00;;;;;14.00;88.97;101434.78;5091413;28;44858;-83
2023/03/20 08:32:07;;;;;;;;;7.00;7.00;;;;;13.89;90.85;101437.31;5096321;27;45485;-83
2023/03/20 08:34:32;;;;;;;;;5.67;5.33;;;;;14.04;90.00;101444.63;5097903;27;45454;-82
2023/03/20 08:37:07;;;;;;;;;3.67;2.00;;;;;14.28;89.19;101435.03;5112813;27;44919;-82
2023/03/20 08:39:33;;;;;;;;;4.67;3.33;;;;;14.31;89.54;101451.16;5114264;27;45493;-81
2023/03/20 08:41:58;;;;;;;;;4.67;3.00;;;;;14.40;89.30;101449.47;5114828;27;45246;-80
2023/03/20 08:44:48;;;;;;;;;4.00;4.00;;;;;14.63;87.30;101434.53;5114748;27;45340;-80
2023/03/20 08:47:17;;;;;;;;;8.67;6.00;;;;;14.72;88.26;101454.22;5096401;27;45534;-80
2023/03/20 08:49:50;;;;;;;;;6.33;5.00;;;;;14.87;88.30;101448.13;5101476;27;45817;-80
2023/03/20 08:52:29;;;;;;;;;;;;;;;;;;;;;
2023/03/20 08:55:05;;;;;;;;;8.33;5.00;;;;;15.36;87.18;101442.19;5112056;27;74575;-82
2023/03/20 08:58:15;;;;;;;;;3.33;3.33;;;;;15.51;87.26;101436.00;5094366;27;45358;-82
2023/03/20 09:00:47;;;;;;;;;10.67;7.00;;;;;15.54;85.64;101426.19;5031051;28;45485;-82
2023/03/20 09:03:27;;;;;;;;;6.33;4.33;;;;;15.62;84.35;101434.28;5032532;28;45607;-80
2023/03/20 09:07:06;;;;;;;;;9.33;8.00;;;;;15.65;86.09;101428.91;5033510;28;45490;-81
2023/03/20 09:09:33;;;;;;;;;6.33;6.33;;;;;15.62;86.06;101417.31;4994784;28;44946;-81
2023/03/20 09:12:05;;;;;;;;;11.33;10.67;;;;;15.91;85.40;101436.19;4991643;28;45444;-82
2023/03/20 09:14:33;;;;;;;;;7.00;5.00;;;;;15.96;85.61;101424.59;4991813;28;45481;-81
2023/03/20 09:16:59;;;;;;;;;6.00;4.00;;;;;15.86;84.32;101393.28;4991433;28;45592;-81
2023/03/20 09:19:27;;;;;;;;;5.67;5.00;;;;;15.89;83.92;101389.69;4990085;28;45580;-81
2023/03/20 09:22:05;;;;;;;;;4.00;4.00;;;;;16.07;82.90;101395.09;4991424;28;45410;-81
2023/03/20 09:24:33;;;;;;;;;5.00;4.00;;;;;15.93;84.87;101410.28;4991799;28;45450;-83
2023/03/20 09:27:22;;;;;;;;;8.00;5.00;;;;;15.93;82.74;101397.75;4991969;28;47869;-82
2023/03/20 09:44:51;;;;;;;;;;;;;;;;;;;;;
2023/03/20 09:47:55;;;;;;;;;7.00;6.00;;;;;17.06;81.83;101420.19;5056011;28;65331;-83
2023/03/20 09:50:36;;;;;;;;;4.00;4.00;;;;;17.13;81.29;101418.41;5016608;28;45412;-82
2023/03/20 09:53:31;;;;;;;;;;;;;;;;;;;;;
2023/03/20 09:56:12;;;;;;;;;3.00;2.67;;;;;17.09;78.79;101422.00;5012386;28;68530;-82
2023/03/20 10:19:14;;;;;;;;;3.00;3.00;;;;;17.09;73.49;101403.19;5075680;28;45464;-81
2023/03/20 10:22:11;;;;;;;;;3.67;3.00;;;;;16.76;77.25;101370.06;5056300;28;45378;-81
2023/03/20 10:24:44;;;;;;;;;4.00;2.00;;;;;16.82;77.04;101370.09;4972146;28;45495;-81
2023/03/20 10:27:33;;;;;;;;;2.67;2.67;;;;;16.92;76.34;101362.91;4973810;28;46793;-81
2023/03/20 10:38:08;;;;;;;;;1.00;1.00;;;;;17.26;76.23;101373.56;4867409;26;45450;-83
2023/03/20 10:41:43;;;;;;;;;;;;;;;;;;;;;
2023/03/20 10:48:18;;;;;;;;;5.00;5.00;;;;;18.30;74.07;101385.56;4951074;28;45382;-82
2023/03/20 10:57:47;;;;;;;;;2.67;2.67;;;;;18.42;71.71;101363.97;4846975;29;45385;-80
2023/03/20 11:00:36;;;;;;;;;5.00;3.00;;;;;18.50;72.59;101359.41;4853392;29;45495;-82
2023/03/20 11:03:05;;;;;;;;;4.67;4.67;;;;;18.65;72.49;101368.25;4940977;28;45572;-79
2023/03/20 11:06:27;;;;;;;;;4.67;4.33;;;;;18.90;70.81;101359.03;4943701;28;45551;-82
2023/03/20 11:09:34;;;;;;;;;6.00;3.00;;;;;18.89;70.96;101316.81;4971862;28;45438;-82
2023/03/20 11:12:18;;;;;;;;;3.33;1.33;;;;;19.26;70.31;101348.75;4931960;28;44908;-80
2023/03/20 11:14:46;;;;;;;;;4.00;4.00;;;;;19.17;69.10;101322.78;4915179;28;47734;-83
2023/03/20 11:17:12;;;;;;;;;4.67;4.00;;;;;19.17;69.45;101348.88;4913543;28;45566;-83
2023/03/20 11:19:40;;;;;;;;;5.00;5.00;;;;;19.20;66.13;101343.41;4931509;28;45668;-83
2023/03/20 11:22:17;;;;;;;;;2.33;2.33;;;;;19.22;67.28;101347.00;4914203;28;45518;-83
2023/03/20 11:25:05;;;;;;;;;4.00;3.00;;;;;19.06;69.09;101345.41;4914108;28;46720;-83
2023/03/20 11:27:33;;;;;;;;;3.33;3.33;;;;;18.96;70.16;101350.88;4932899;28;45630;-82
2023/03/20 11:30:14;;;;;;;;;4.33;4.33;;;;;18.97;65.90;101331.09;4910386;28;45473;-82
2023/03/20 11:32:52;;;;;;;;;6.00;4.67;;;;;18.96;68.80;101348.19;4990641;28;45329;-80
2023/03/20 11:35:31;;;;;;;;;3.00;3.00;;;;;18.90;70.17;101345.53;4971617;28;47024;-83
2023/03/20 11:38:20;;;;;;;;;10.67;7.33;;;;;18.66;70.80;101310.75;4965699;28;45479;-83
2023/03/20 11:40:52;;;;;;;;;4.00;4.00;;;;;18.56;70.20;101305.47;4966472;28;45680;-80
2023/03/20 11:43:36;;;;;;;;;;;;;;;;;;;;;
2023/03/20 11:46:11;;;;;;;;;5.00;5.00;;;;;18.97;71.81;101344.59;5004183;28;75489;-79
2023/03/20 11:48:45;;;;;;;;;6.00;5.33;;;;;19.19;72.94;101347.06;5007697;28;45362;-79
2023/03/20 11:51:20;;;;;;;;;10.00;7.33;;;;;19.46;72.83;101343.09;5007795;28;45468;-79
2023/03/20 11:58:18;;;;;;;;;;;;;;;;;;;;;
2023/03/20 12:04:41;;;;;;;;;10.33;9.67;;;;;19.59;70.28;101342.03;4914564;28;45648;-78
2023/03/20 12:07:16;;;;;;;;;10.33;10.00;;;;;19.77;70.05;101331.91;4909826;29;45431;-78
2023/03/20 12:09:56;;;;;;;;;5.67;4.67;;;;;19.95;70.95;101322.66;4909581;29;45518;-79
2023/03/20 12:12:41;;;;;;;;;17.67;15.00;;;;;19.77;69.50;101308.53;4912176;29;45352;-80
2023/03/20 12:18:58;;;;;;;;;6.67;5.67;;;;;19.81;66.01;101330.94;4893219;29;45405;-78
2023/03/20 12:21:57;;;;;;;;;5.00;5.00;;;;;19.83;65.92;101317.44;4893513;29;46179;-80
2023/03/20 12:24:37;;;;;;;;;5.33;5.33;;;;;19.78;64.78;101314.81;4886438;28;45858;-79
2023/03/20 12:28:00;;;;;;;;;;;;;;;;;;;;;
2023/03/20 12:31:08;;;;;;;;;17.00;14.00;;;;;19.80;71.88;101325.59;4869483;29;64972;-76
2023/03/20 13:50:33;;;;;;;;;6.67;4.33;;;;;20.93;63.27;101257.91;4941593;23;45956;-81
2023/03/20 13:53:20;;;;;;;;;4.00;4.00;;;;;20.70;64.35;101247.53;4883181;29;45421;-82
2023/03/20 13:59:44;;;;;;;;;;;;;;;;;;;;;
2023/03/20 15:27:56;;;;;;;;;7.67;5.33;;;;;20.07;72.63;101178.47;510171;26;46111;-82
2023/03/20 15:31:37;;;;;;;;;6.33;5.67;;;;;19.86;74.66;101166.25;4895418;29;46012;-82
2023/03/20 15:34:51;;;;;;;;;7.67;4.33;;;;;19.80;74.33;101163.66;4877323;29;45820;-82
2023/03/20 15:37:39;;;;;;;;;6.00;4.67;;;;;19.34;76.10;101131.06;4887622;28;45450;-83
2023/03/20 15:47:29;;;;;;;;;8.67;6.67;;;;;19.24;78.38;101148.31;4901216;29;45361;-84
2023/03/20 15:53:02;;;;;;;;;12.00;7.00;;;;;19.25;79.08;101133.03;4897806;29;45726;-83
2023/03/20 15:55:40;;;;;;;;;5.33;5.33;;;;;19.11;79.93;101128.75;4885491;29;46089;-82
2023/03/20 15:59:16;;;;;;;;;;;;;;;;;;;;;
2023/03/20 16:01:48;;;;;;;;;4.00;4.00;;;;;18.94;80.79;101128.09;4884514;29;65311;-83
2023/03/20 16:04:53;;;;;;;;;11.67;7.67;;;;;19.14;80.17;101154.75;4879351;29;45433;-82
2023/03/20 16:07:49;;;;;;;;;7.67;6.33;;;;;18.94;81.44;101120.88;4899589;28;45736;-83
2023/03/20 16:13:59;;;;;;;;;8.00;5.67;;;;;18.95;79.65;101132.59;4900310;29;44835;-82
2023/03/20 16:16:36;;;;;;;;;8.00;6.00;;;;;18.71;80.84;101133.78;4902847;29;46148;-84
2023/03/20 16:19:07;;;;;;;;;9.33;7.33;;;;;18.73;82.42;101111.28;5346291;23;45401;-82
2023/03/20 16:22:12;;;;;;;;;7.67;7.67;;;;;18.88;83.33;101115.59;4853516;29;45511;-82
2023/03/20 16:35:49;;;;;;;;;9.00;5.00;;;;;18.89;80.78;101095.81;5052376;23;45540;-81
2023/03/20 16:38:28;;;;;;;;;6.33;6.00;;;;;18.83;81.08;101106.69;4889086;28;46954;-82
2023/03/20 16:40:59;;;;;;;;;6.33;6.33;;;;;18.46;82.74;101068.53;4885504;29;44904;-82